map of EZS home
Great Circle Mapper logo
EZS - Airport
Location
City:  Elazig, Turkey
ICAO / IATA:LTCA / EZS

Details
Type:Airport (Aerodrome, Airfield)
Use:Public/Civil, Military
Latitude:3836'25"N (38.606925)
Longitude:3917'29"E (39.291417)
Datum:WGS 1984
Elevation:2927 ft (892 m)
Runways:1
Longest:5643 × 105 ft (1720 × 32 m), paved

Time
Time Zone:UTC+2 (DST+3)
Local Time:

Weather
METAR:LTCA 242250Z VRB01KT CAVOK 10/07 Q1014 NOSIG

Related Locations
Nearby:
Farthest:NTAV: 11338 mi / 18247 km
Raivavae, Tubuai Islands, Austral Islands, PF

Find:

   beyond  
but within

Other Information
Maps:
NOTAMs:
Links:
Sources:

  
flag of Turkey   

Sectional Chart

Flight Planning
at skyvector.com

Satellite Image

Google Maps Satellite View

 

Copyright © 2004-2014 Karl L. Swartz. All rights reserved.
The Great Circle Mapper name and logo are trademarks of the Great Circle Mapper.
All other trademarks mentioned herein belong to their respective owners.
Please see credits for attibutions and further copyright information.

  Follow gcmap on Facebook Follow gcmap on Twitter

hCard Microformat

Geo Microformat